Time;durP1;ratioP1;P1;durP2;ratioP2;P2;SDS_P1;SDS_P2;PMS_P1;PMS_P2;Temp;Humidity;BMP_temperature;BMP_pressure;BME280_temperature;BME280_humidity;BME280_pressure;Samples;Min_cycle;Max_cycle;Signal;HPM_P1;HPM_P2
2023/06/22 00:02:21;;;;;;;11.65;7.70;;;;;;;16.58;100.00;101729.94;5054343;28;20067;-46
2023/06/22 00:04:47;;;;;;;12.23;9.60;;;;;;;16.46;100.00;101727.97;5054264;28;20032;-46
2023/06/22 00:07:12;;;;;;;13.38;9.07;;;;;;;16.28;100.00;101728.50;5054572;28;20025;-42
2023/06/22 00:09:37;;;;;;;11.07;8.23;;;;;;;16.21;100.00;101721.41;5053787;28;20036;-45
2023/06/22 00:12:03;;;;;;;9.52;7.70;;;;;;;16.07;100.00;101718.50;5054479;28;20060;-46
2023/06/22 00:14:28;;;;;;;12.35;8.63;;;;;;;16.11;100.00;101724.66;5054431;28;20476;-47
2023/06/22 00:16:58;;;;;;;12.27;10.00;;;;;;;16.19;100.00;101730.91;5054005;28;20469;-46
2023/06/22 00:19:24;;;;;;;15.77;10.32;;;;;;;16.21;100.00;101728.34;5053931;28;20025;-45
2023/06/22 00:21:52;;;;;;;18.23;10.85;;;;;;;16.16;100.00;101728.22;5054215;28;20041;-46
2023/06/22 00:24:21;;;;;;;14.90;9.20;;;;;;;16.16;100.00;101724.75;5053795;28;20048;-44
2023/06/22 00:26:48;;;;;;;12.98;9.70;;;;;;;16.12;100.00;101735.09;5053729;28;20436;-46
2023/06/22 00:29:14;;;;;;;14.70;9.88;;;;;;;16.10;100.00;101739.41;5054227;28;20021;-44
2023/06/22 00:31:39;;;;;;;15.98;11.00;;;;;;;15.96;100.00;101733.03;5053423;28;20079;-47
2023/06/22 00:34:06;;;;;;;13.18;9.65;;;;;;;15.87;100.00;101725.00;5053818;28;20138;-45
2023/06/22 00:36:32;;;;;;;12.43;9.60;;;;;;;15.89;100.00;101724.19;5053501;28;20055;-45
2023/06/22 00:38:57;;;;;;;12.10;10.07;;;;;;;15.87;100.00;101730.19;5054036;28;20068;-47
2023/06/22 00:41:22;;;;;;;13.88;11.10;;;;;;;15.84;100.00;101727.53;5053817;28;20017;-43
2023/06/22 00:43:47;;;;;;;16.90;11.10;;;;;;;15.84;100.00;101731.03;5053389;28;20021;-43
2023/06/22 00:46:13;;;;;;;13.45;10.20;;;;;;;15.76;100.00;101720.44;5053900;28;20025;-44
2023/06/22 00:48:39;;;;;;;13.32;9.63;;;;;;;15.62;100.00;101719.22;5053534;28;20024;-46
2023/06/22 00:51:05;;;;;;;14.57;10.27;;;;;;;15.67;100.00;101716.75;5053444;28;20167;-45
2023/06/22 00:53:34;;;;;;;16.23;10.65;;;;;;;15.59;100.00;101719.19;5053435;28;20056;-45
2023/06/22 00:56:00;;;;;;;14.50;10.52;;;;;;;15.53;100.00;101713.81;5053726;28;20447;-46
2023/06/22 00:58:25;;;;;;;12.02;9.70;;;;;;;15.45;100.00;101722.34;5052330;28;20481;-44
2023/06/22 01:00:51;;;;;;;15.88;12.23;;;;;;;15.51;100.00;101733.72;5053322;28;20029;-45
2023/06/22 01:03:17;;;;;;;17.05;13.27;;;;;;;15.50;100.00;101724.16;5053461;28;20107;-46
2023/06/22 01:05:46;;;;;;;17.27;13.45;;;;;;;15.42;100.00;101716.19;5052928;28;20369;-46
2023/06/22 01:08:43;;;;;;;16.92;12.48;;;;;;;15.39;100.00;101710.91;5053249;28;20512;-46
2023/06/22 01:11:16;;;;;;;17.15;14.10;;;;;;;15.42;100.00;101706.66;5053314;28;20409;-44
2023/06/22 01:14:02;;;;;;;17.15;14.75;;;;;;;15.50;100.00;101713.78;5052528;28;20083;-46
2023/06/22 01:16:33;;;;;;;17.15;13.77;;;;;;;15.36;100.00;101711.72;5053096;28;20472;-46
2023/06/22 01:19:07;;;;;;;16.02;13.43;;;;;;;15.43;100.00;101708.44;5053019;28;20047;-46
2023/06/22 01:21:33;;;;;;;19.85;15.32;;;;;;;15.44;100.00;101710.19;5052574;28;20392;-43
2023/06/22 01:24:22;;;;;;;19.70;15.35;;;;;;;15.52;100.00;101707.78;5053234;28;20024;-45
2023/06/22 01:26:59;;;;;;;18.92;15.35;;;;;;;15.57;100.00;101713.06;5052545;28;20461;-47
2023/06/22 01:29:27;;;;;;;20.08;16.50;;;;;;;15.60;100.00;101716.59;5052534;28;20075;-46
2023/06/22 01:31:54;;;;;;;19.38;16.23;;;;;;;15.60;100.00;101720.94;5053123;28;20031;-45
2023/06/22 01:34:21;;;;;;;21.95;17.23;;;;;;;15.58;100.00;101709.63;5052557;28;20039;-45
2023/06/22 01:36:47;;;;;;;22.40;17.23;;;;;;;15.55;100.00;101712.16;5052535;28;20035;-48
2023/06/22 01:39:13;;;;;;;19.20;16.92;;;;;;;15.54;100.00;101713.00;5052878;28;20033;-46
2023/06/22 01:41:40;;;;;;;20.88;17.73;;;;;;;15.60;100.00;101716.59;5052334;28;20036;-46
2023/06/22 01:44:09;;;;;;;22.20;17.37;;;;;;;15.63;100.00;101715.78;5052722;28;20603;-45
2023/06/22 01:46:35;;;;;;;20.15;15.88;;;;;;;15.69;100.00;101709.88;5052526;28;20033;-45
2023/06/22 01:49:03;;;;;;;20.00;16.40;;;;;;;15.66;100.00;101709.78;5052262;28;20017;-45
2023/06/22 01:51:28;;;;;;;21.58;16.63;;;;;;;15.58;100.00;101704.41;5052293;28;20100;-42
2023/06/22 01:53:53;;;;;;;21.83;16.23;;;;;;;15.47;100.00;101699.00;5052472;28;20167;-42
2023/06/22 01:56:19;;;;;;;18.08;15.95;;;;;;;15.36;100.00;101706.50;5052548;28;20530;-45
2023/06/22 01:59:01;;;;;;;19.75;15.95;;;;;;;15.31;100.00;101697.72;5052488;28;20021;-44
2023/06/22 02:01:33;;;;;;;21.05;17.83;;;;;;;15.38;100.00;101704.84;5051841;28;20036;-45
2023/06/22 02:04:13;;;;;;;21.33;17.52;;;;;;;15.50;100.00;101701.66;5052649;28;20021;-45
2023/06/22 02:06:43;;;;;;;23.40;16.85;;;;;;;15.56;100.00;101698.34;5052626;28;20048;-44
2023/06/22 02:09:17;;;;;;;22.77;16.50;;;;;;;15.59;100.00;101699.25;5052044;28;20385;-42
2023/06/22 02:11:45;;;;;;;22.25;17.38;;;;;;;15.63;100.00;101702.81;5054360;28;20036;-47
2023/06/22 02:14:12;;;;;;;19.05;16.10;;;;;;;15.54;100.00;101705.19;5056648;28;20497;-46
2023/06/22 02:16:38;;;;;;;19.65;16.33;;;;;;;15.47;100.00;101699.84;5056160;28;20029;-45
2023/06/22 02:19:05;;;;;;;19.35;16.50;;;;;;;15.45;100.00;101691.16;5056685;28;20021;-44
2023/06/22 02:21:31;;;;;;;18.67;16.50;;;;;;;15.38;100.00;101689.25;5056247;28;20071;-46
2023/06/22 02:23:57;;;;;;;20.23;16.77;;;;;;;15.46;100.00;101697.22;5055858;28;20094;-46
2023/06/22 02:26:24;;;;;;;27.67;18.42;;;;;;;15.51;100.00;101697.34;5056400;28;20025;-47
2023/06/22 02:28:50;;;;;;;19.98;17.42;;;;;;;15.53;100.00;101699.13;5056490;28;20029;-45
2023/06/22 02:31:15;;;;;;;20.05;17.75;;;;;;;15.46;100.00;101694.63;5055944;28;20027;-45
2023/06/22 02:33:41;;;;;;;21.20;18.38;;;;;;;15.39;100.00;101691.03;5056303;28;20025;-44
2023/06/22 02:36:08;;;;;;;21.77;17.30;;;;;;;15.33;100.00;101688.28;5056017;28;20488;-48
2023/06/22 02:38:34;;;;;;;23.35;17.13;;;;;;;15.29;100.00;101676.94;5056034;28;20040;-44
2023/06/22 02:41:00;;;;;;;20.10;17.60;;;;;;;15.23;100.00;101681.09;5056433;28;20027;-44
2023/06/22 02:43:25;;;;;;;20.58;17.80;;;;;;;15.21;100.00;101677.59;5055538;28;20538;-43
2023/06/22 02:45:51;;;;;;;26.00;20.15;;;;;;;15.24;100.00;101683.72;5056053;28;20029;-41
2023/06/22 02:48:16;;;;;;;24.15;19.00;;;;;;;15.20;100.00;101681.91;5056400;28;20044;-47
2023/06/22 02:50:41;;;;;;;21.67;18.48;;;;;;;15.14;100.00;101673.97;5055367;28;20033;-45
2023/06/22 02:53:07;;;;;;;22.67;19.08;;;;;;;15.11;100.00;101674.78;5055963;28;20025;-44
2023/06/22 02:55:32;;;;;;;21.33;19.00;;;;;;;15.08;100.00;101677.31;5055998;28;20366;-45
2023/06/22 02:57:59;;;;;;;24.92;20.00;;;;;;;15.10;100.00;101674.75;5055521;28;20052;-45
2023/06/22 03:00:30;;;;;;;20.38;18.17;;;;;;;15.14;100.00;101671.38;5055585;28;20029;-44
2023/06/22 03:02:55;;;;;;;24.13;18.80;;;;;;;15.15;100.00;101666.22;5056133;28;20035;-46
2023/06/22 03:05:21;;;;;;;21.70;18.95;;;;;;;15.13;100.00;101664.41;5055319;28;20025;-45
2023/06/22 03:07:46;;;;;;;22.88;19.63;;;;;;;15.07;100.00;101667.75;5055245;28;20033;-44
2023/06/22 03:10:13;;;;;;;23.02;19.90;;;;;;;15.01;100.00;101661.53;5055699;28;20032;-46
2023/06/22 03:12:39;;;;;;;24.63;19.73;;;;;;;14.97;100.00;101645.00;5054770;28;20022;-43
2023/06/22 03:15:06;;;;;;;23.00;19.63;;;;;;;14.90;100.00;101649.19;5055584;28;20079;-45
2023/06/22 03:17:31;;;;;;;25.25;20.13;;;;;;;14.97;100.00;101647.59;5055786;28;20104;-46
2023/06/22 03:19:57;;;;;;;25.52;20.33;;;;;;;14.94;100.00;101647.53;5054809;28;20057;-43
2023/06/22 03:22:22;;;;;;;23.50;19.50;;;;;;;14.97;100.00;101655.41;5054952;28;20029;-41
2023/06/22 03:24:47;;;;;;;25.80;20.20;;;;;;;14.94;100.00;101647.53;5055365;28;20031;-44
2023/06/22 03:27:13;;;;;;;24.75;19.85;;;;;;;14.93;100.00;101640.59;5054841;28;20035;-47
2023/06/22 03:29:38;;;;;;;26.20;20.67;;;;;;;14.90;100.00;101648.28;5054955;28;20053;-42
2023/06/22 03:32:05;;;;;;;24.55;20.42;;;;;;;14.93;100.00;101635.41;5055411;28;20028;-47
2023/06/22 03:34:34;;;;;;;25.08;20.15;;;;;;;14.89;100.00;101638.75;5054394;28;20124;-46
2023/06/22 03:36:59;;;;;;;24.92;20.52;;;;;;;14.90;100.00;101641.41;5055302;28;20016;-44
2023/06/22 03:39:25;;;;;;;22.50;20.13;;;;;;;14.97;100.00;101645.00;5054206;28;20109;-41
2023/06/22 03:41:50;;;;;;;24.00;20.98;;;;;;;15.01;100.00;101639.03;5054989;28;20032;-41
2023/06/22 03:44:15;;;;;;;24.17;20.80;;;;;;;15.05;100.00;101635.69;5055257;28;20029;-43
2023/06/22 03:46:41;;;;;;;24.77;20.48;;;;;;;15.03;100.00;101637.38;5054448;28;20075;-46
2023/06/22 03:49:06;;;;;;;27.60;21.05;;;;;;;15.06;100.00;101642.63;5054854;28;20469;-47
2023/06/22 03:51:32;;;;;;;24.52;21.30;;;;;;;15.07;100.00;101647.00;5054709;28;20033;-45
2023/06/22 03:53:57;;;;;;;30.15;22.02;;;;;;;15.09;100.00;101632.34;5054334;28;20022;-45
2023/06/22 03:56:23;;;;;;;25.75;21.80;;;;;;;15.12;100.00;101637.59;5054532;28;20024;-42
2023/06/22 03:58:48;;;;;;;28.20;21.67;;;;;;;15.15;100.00;101635.06;5055006;28;20028;-45
2023/06/22 04:01:13;;;;;;;25.05;21.42;;;;;;;15.19;100.00;101624.75;5054309;28;20048;-45
2023/06/22 04:03:39;;;;;;;26.55;21.50;;;;;;;15.26;100.00;101626.63;5054245;28;20078;-43
2023/06/22 04:06:04;;;;;;;27.38;22.92;;;;;;;15.29;100.00;101626.72;5054631;28;20036;-47
2023/06/22 04:08:30;;;;;;;27.05;22.60;;;;;;;15.36;100.00;101632.94;5053885;28;20017;-44
2023/06/22 04:10:56;;;;;;;27.63;22.85;;;;;;;15.40;100.00;101627.84;5054309;28;20033;-42
2023/06/22 04:13:21;;;;;;;29.80;23.20;;;;;;;15.44;100.00;101621.88;5054799;28;20017;-45
2023/06/22 04:15:46;;;;;;;26.60;22.45;;;;;;;15.49;100.00;101624.53;5053696;28;20136;-47
2023/06/22 04:18:13;;;;;;;27.42;23.02;;;;;;;15.53;100.00;101620.31;5054359;28;20057;-46
2023/06/22 04:20:38;;;;;;;28.60;23.27;;;;;;;15.58;100.00;101629.06;5054032;28;20128;-45
2023/06/22 04:23:04;;;;;;;28.52;22.80;;;;;;;15.62;100.00;101625.69;5053843;28;20101;-42
2023/06/22 04:25:29;;;;;;;26.95;22.45;;;;;;;15.64;100.00;101619.69;5053702;28;20542;-45
2023/06/22 04:27:54;;;;;;;25.50;22.67;;;;;;;15.69;100.00;101632.78;5054420;28;20025;-42
2023/06/22 04:30:20;;;;;;;30.25;21.73;;;;;;;15.70;100.00;101626.75;5053942;28;20028;-44
2023/06/22 04:32:45;;;;;;;28.27;22.52;;;;;;;15.73;100.00;101632.00;5053865;28;20028;-45
2023/06/22 04:35:11;;;;;;;28.40;22.20;;;;;;;15.77;100.00;101626.00;5053542;28;20020;-45
2023/06/22 04:37:37;;;;;;;28.17;22.10;;;;;;;15.82;100.00;101636.53;5053041;28;20422;-41
2023/06/22 04:40:05;;;;;;;28.38;23.48;;;;;;;15.87;100.00;101626.22;5054001;28;20460;-47
2023/06/22 04:42:31;;;;;;;31.90;23.08;;;;;;;15.94;100.00;101635.91;5053573;28;20035;-41
2023/06/22 04:44:57;;;;;;;27.10;22.00;;;;;;;16.01;100.00;101639.50;5053940;28;20017;-43
2023/06/22 04:47:22;;;;;;;30.08;22.02;;;;;;;16.08;100.00;101637.06;5053511;28;20036;-41
2023/06/22 04:49:47;;;;;;;25.23;21.58;;;;;;;16.17;100.00;101638.09;5053165;28;20488;-42
2023/06/22 04:52:13;;;;;;;24.00;21.50;;;;;;;16.25;100.00;101642.56;5053573;28;20500;-48
2023/06/22 04:54:47;;;;;;;25.90;22.17;;;;;;;16.34;100.00;101634.06;5053365;28;20477;-44
2023/06/22 04:57:13;;;;;;;28.60;23.05;;;;;;;16.46;100.00;101639.50;5053321;28;20368;-45
2023/06/22 04:59:41;;;;;;;28.23;22.45;;;;;;;16.56;100.00;101635.31;5053193;28;20488;-42
2023/06/22 05:02:07;;;;;;;32.40;22.23;;;;;;;16.67;100.00;101637.25;5053855;28;20033;-40
2023/06/22 05:04:33;;;;;;;32.03;24.05;;;;;;;16.77;100.00;101641.75;5052727;28;20029;-47
2023/06/22 05:07:02;;;;;;;26.83;22.38;;;;;;;16.90;100.00;101640.22;5053270;28;20067;-46
2023/06/22 05:09:28;;;;;;;27.83;22.98;;;;;;;17.00;100.00;101626.53;5053424;28;20033;-44
2023/06/22 05:11:54;;;;;;;27.77;23.42;;;;;;;17.11;100.00;101627.56;5053111;28;20078;-47
2023/06/22 05:14:19;;;;;;;29.27;22.55;;;;;;;17.24;100.00;101632.97;5053216;28;20033;-45
2023/06/22 05:16:45;;;;;;;24.45;21.17;;;;;;;17.34;100.00;101627.06;5053220;28;20017;-44
2023/06/22 05:19:11;;;;;;;29.27;23.27;;;;;;;17.42;100.00;101630.63;5052880;28;20021;-47
2023/06/22 05:21:36;;;;;;;25.83;23.08;;;;;;;17.47;100.00;101633.31;5052585;28;20055;-43
2023/06/22 05:24:02;;;;;;;27.73;22.83;;;;;;;17.49;100.00;101630.72;5053462;28;20388;-45
2023/06/22 05:26:30;;;;;;;27.25;24.33;;;;;;;17.49;100.00;101633.31;5052639;28;20100;-43
2023/06/22 05:28:56;;;;;;;25.35;22.60;;;;;;;17.50;100.00;101637.69;5053182;28;20021;-45
2023/06/22 05:31:21;;;;;;;31.08;24.40;;;;;;;17.54;100.00;101636.88;5053180;28;20120;-46
2023/06/22 05:33:48;;;;;;;30.50;23.55;;;;;;;17.58;100.00;101642.16;5052021;28;20032;-46
2023/06/22 05:36:15;;;;;;;27.48;23.20;;;;;;;17.64;100.00;101632.63;5053146;28;20435;-46
2023/06/22 05:38:41;;;;;;;28.83;22.25;;;;;;;17.66;100.00;101631.78;5053106;28;20021;-44
2023/06/22 05:41:09;;;;;;;32.45;23.25;;;;;;;17.65;100.00;101630.06;5052171;28;20455;-46
2023/06/22 05:43:35;;;;;;;33.08;23.65;;;;;;;17.64;100.00;101620.50;5052666;28;20101;-45
2023/06/22 05:46:01;;;;;;;27.90;23.02;;;;;;;17.64;100.00;101617.88;5052515;28;20096;-43
2023/06/22 05:48:27;;;;;;;27.63;22.60;;;;;;;17.64;100.00;101617.88;5052381;28;20064;-46
2023/06/22 05:50:53;;;;;;;28.13;23.23;;;;;;;17.68;100.00;101619.66;5052666;28;20485;-44
2023/06/22 05:53:18;;;;;;;31.85;23.70;;;;;;;17.72;100.00;101623.19;5052503;28;20040;-45
2023/06/22 05:55:44;;;;;;;26.92;23.25;;;;;;;17.77;100.00;101624.13;5052447;28;20373;-45
2023/06/22 05:58:09;;;;;;;29.42;23.27;;;;;;;17.83;100.00;101626.81;5052858;28;20104;-46
2023/06/22 06:00:35;;;;;;;28.42;23.23;;;;;;;17.92;100.00;101631.25;5052030;28;20480;-45
2023/06/22 06:03:03;;;;;;;27.13;22.60;;;;;;;18.05;100.00;101627.06;5052537;28;20064;-45
2023/06/22 06:05:33;;;;;;;27.45;24.15;;;;;;;18.15;100.00;101631.53;5052502;28;20544;-47
2023/06/22 06:08:04;;;;;;;31.58;23.67;;;;;;;18.26;100.00;101631.66;5051945;28;20512;-46
2023/06/22 06:10:30;;;;;;;29.45;23.55;;;;;;;18.45;100.00;101631.84;5052305;28;20028;-48
2023/06/22 06:12:56;;;;;;;26.98;22.67;;;;;;;18.65;100.00;101625.06;5052659;28;20036;-47
2023/06/22 06:15:21;;;;;;;28.70;22.67;;;;;;;18.86;100.00;101623.50;5052103;28;20487;-44
2023/06/22 06:17:51;;;;;;;28.23;23.00;;;;;;;19.05;100.00;101619.31;5051992;28;20079;-46
2023/06/22 06:20:20;;;;;;;24.25;21.42;;;;;;;19.17;100.00;101618.50;5052465;28;20049;-46
2023/06/22 06:22:46;;;;;;;24.63;22.02;;;;;;;19.30;100.00;101609.91;5051790;28;20021;-43
2023/06/22 06:25:18;;;;;;;24.98;22.02;;;;;;;19.42;100.00;101615.19;5052608;28;20032;-46
2023/06/22 06:27:44;;;;;;;25.80;21.65;;;;;;;19.57;100.00;101623.94;5052359;28;20171;-42
2023/06/22 06:30:11;;;;;;;28.48;21.52;;;;;;;19.74;100.00;101624.91;5051534;28;20543;-47
2023/06/22 06:32:37;;;;;;;25.08;21.13;;;;;;;19.89;100.00;101625.88;5052015;28;20108;-47
2023/06/22 06:35:04;;;;;;;24.95;21.77;;;;;;;20.04;100.00;101623.28;5052020;28;20025;-43
2023/06/22 06:37:29;;;;;;;23.38;20.67;;;;;;;20.17;100.00;101631.19;5051844;28;20039;-45
2023/06/22 06:39:54;;;;;;;25.15;21.75;;;;;;;20.26;100.00;101622.47;5052455;28;20033;-46
2023/06/22 06:42:19;;;;;;;25.02;21.27;;;;;;;20.39;100.00;101621.63;5051768;28;20048;-47
2023/06/22 06:44:45;;;;;;;24.23;21.55;;;;;;;20.44;100.00;101619.00;5051875;28;20025;-45
2023/06/22 06:47:10;;;;;;;26.35;21.60;;;;;;;20.55;100.00;101617.25;5052408;28;20120;-48
2023/06/22 06:49:36;;;;;;;26.67;21.70;;;;;;;20.60;100.00;101615.50;5051515;28;20033;-46
2023/06/22 06:52:01;;;;;;;27.92;22.05;;;;;;;20.74;100.00;101623.41;5052228;28;20091;-48
2023/06/22 06:54:27;;;;;;;24.55;20.42;;;;;;;20.86;99.84;101615.56;5052033;28;20017;-46
2023/06/22 06:56:52;;;;;;;25.60;21.10;;;;;;;21.00;98.97;101620.75;5052521;28;20021;-47
2023/06/22 06:59:18;;;;;;;24.60;20.52;;;;;;;21.12;98.09;101619.88;5055681;28;20028;-47
2023/06/22 07:01:44;;;;;;;25.85;22.25;;;;;;;21.27;97.68;101624.22;5055655;28;20036;-46
2023/06/22 07:04:09;;;;;;;22.88;20.45;;;;;;;21.42;98.43;101625.03;5055350;28;20407;-46
2023/06/22 07:06:34;;;;;;;25.35;21.13;;;;;;;21.59;97.09;101615.41;5055272;28;20029;-45
2023/06/22 07:09:00;;;;;;;24.73;21.70;;;;;;;21.75;95.82;101613.56;5056084;28;20029;-43
2023/06/22 07:11:26;;;;;;;23.95;20.42;;;;;;;21.86;94.69;101611.78;5055022;28;20397;-47
2023/06/22 07:13:52;;;;;;;26.00;22.23;;;;;;;21.98;93.59;101618.69;5055606;28;20024;-45
2023/06/22 07:16:18;;;;;;;25.23;21.17;;;;;;;22.20;92.80;101623.84;5055672;28;20075;-42
2023/06/22 07:18:43;;;;;;;26.33;21.83;;;;;;;22.12;91.41;101615.16;5055095;28;20049;-46
2023/06/22 07:21:09;;;;;;;25.38;21.30;;;;;;;22.20;90.26;101606.31;5055257;28;20433;-46
2023/06/22 07:23:34;;;;;;;31.33;25.67;;;;;;;22.35;90.36;101610.59;5055410;28;20025;-44
2023/06/22 07:26:02;;;;;;;34.22;27.48;;;;;;;22.28;88.60;101608.88;5055026;28;20024;-41
2023/06/22 07:28:30;;;;;;;32.63;25.55;;;;;;;22.44;86.89;101608.81;5055138;28;20021;-46
2023/06/22 07:30:56;;;;;;;29.05;22.10;;;;;;;22.43;88.75;101607.09;5055408;28;20037;-48
2023/06/22 07:33:22;;;;;;;26.88;22.92;;;;;;;22.39;87.29;101602.72;5054811;28;20112;-44
2023/06/22 07:35:48;;;;;;;31.30;22.63;;;;;;;22.21;88.78;101599.31;5055414;28;20082;-42
2023/06/22 07:38:14;;;;;;;23.13;19.45;;;;;;;22.29;87.68;101604.53;5055531;28;20043;-43
2023/06/22 07:40:41;;;;;;;20.65;18.45;;;;;;;22.23;85.93;101605.41;5054421;28;20032;-43
2023/06/22 07:43:07;;;;;;;23.13;19.90;;;;;;;22.14;88.29;101610.72;5055286;28;20021;-46
2023/06/22 07:45:34;;;;;;;25.08;20.48;;;;;;;22.00;89.43;101601.22;5054646;28;20112;-45
2023/06/22 07:48:00;;;;;;;25.75;21.23;;;;;;;21.79;93.08;101580.31;5054817;28;20469;-45
2023/06/22 07:50:25;;;;;;;27.20;21.85;;;;;;;21.59;94.03;101583.03;5054556;28;20071;-44
2023/06/22 07:52:52;;;;;;;28.80;22.75;;;;;;;21.44;96.12;101576.09;5054533;28;20053;-44
2023/06/22 07:55:18;;;;;;;29.88;22.20;;;;;;;21.32;98.07;101569.16;5054645;28;20473;-43
2023/06/22 07:57:43;;;;;;;28.95;23.58;;;;;;;21.15;98.81;101559.59;5054566;28;20025;-43
2023/06/22 08:00:16;;;;;;;28.10;20.77;;;;;;;21.04;98.77;101564.88;5054436;28;20027;-44
2023/06/22 08:02:44;;;;;;;25.88;21.02;;;;;;;21.01;100.00;101559.63;5054465;28;20035;-42
2023/06/22 08:05:10;;;;;;;31.95;22.80;;;;;;;21.05;100.00;101553.47;5054904;28;20090;-44
2023/06/22 08:07:39;;;;;;;25.77;22.67;;;;;;;21.19;100.00;101547.34;5053846;28;20377;-42
2023/06/22 08:10:05;;;;;;;27.60;22.30;;;;;;;21.35;100.00;101542.91;5053442;28;20029;-43
2023/06/22 08:12:30;;;;;;;25.90;22.52;;;;;;;21.37;100.00;101531.53;5054231;28;20097;-42
2023/06/22 08:14:56;;;;;;;26.25;22.08;;;;;;;21.53;100.00;101531.47;5054216;28;20112;-41
2023/06/22 08:17:23;;;;;;;25.17;20.60;;;;;;;21.60;99.78;101522.72;5054359;28;20037;-41
2023/06/22 08:19:48;;;;;;;21.25;17.75;;;;;;;21.51;91.83;101520.97;5054560;28;20059;-43
2023/06/22 08:22:13;;;;;;;24.98;18.48;;;;;;;21.52;92.65;101513.97;5053560;28;20068;-44
2023/06/22 08:24:39;;;;;;;25.90;19.55;;;;;;;21.63;94.28;101517.44;5054354;28;20025;-44
2023/06/22 08:27:08;;;;;;;22.38;17.75;;;;;;;21.81;89.70;101510.34;5054278;28;20024;-43
2023/06/22 08:29:33;;;;;;;22.83;17.45;;;;;;;21.94;90.93;101513.78;5053128;28;20029;-42
2023/06/22 08:31:59;;;;;;;22.63;17.50;;;;;;;22.12;90.18;101512.75;5054147;28;20075;-46
2023/06/22 08:34:25;;;;;;;22.88;15.82;;;;;;;22.21;86.60;101520.56;5053954;28;20028;-42
2023/06/22 08:36:52;;;;;;;19.15;15.18;;;;;;;22.36;84.94;101520.47;5053258;28;20102;-42
2023/06/22 08:39:19;;;;;;;20.20;15.02;;;;;;;22.42;81.94;101524.78;5054029;28;20028;-47
2023/06/22 08:41:45;;;;;;;19.58;14.63;;;;;;;22.54;82.73;101523.78;5053178;28;20396;-43
2023/06/22 08:44:10;;;;;;;19.75;13.27;;;;;;;22.57;78.46;101515.91;5053945;28;20029;-43
2023/06/22 08:46:36;;;;;;;17.98;13.45;;;;;;;22.55;75.77;101522.91;5053888;28;20017;-42
2023/06/22 08:49:02;;;;;;;17.48;13.43;;;;;;;22.56;75.25;101522.03;5053344;28;20430;-42
2023/06/22 08:51:27;;;;;;;17.63;13.73;;;;;;;22.53;78.38;101517.69;5053256;28;20017;-42
2023/06/22 08:53:52;;;;;;;15.63;12.30;;;;;;;22.51;75.75;101513.31;5053801;28;20053;-44
2023/06/22 08:56:18;;;;;;;17.70;13.00;;;;;;;22.50;76.14;101516.81;5053210;28;20464;-47
2023/06/22 08:58:44;;;;;;;18.52;12.10;;;;;;;22.47;74.25;101522.97;5053293;28;20072;-42
2023/06/22 09:01:09;;;;;;;14.43;11.35;;;;;;;22.44;74.29;101516.88;5053667;28;20468;-47
2023/06/22 09:03:36;;;;;;;15.43;12.02;;;;;;;22.41;74.25;101509.03;5052767;28;20025;-47
2023/06/22 09:06:01;;;;;;;18.98;11.82;;;;;;;22.43;76.28;101499.41;5053407;28;20017;-43
2023/06/22 09:08:27;;;;;;;15.70;11.70;;;;;;;22.44;73.99;101506.38;5053343;28;20074;-42
2023/06/22 09:10:52;;;;;;;15.48;11.90;;;;;;;22.48;75.65;101505.47;5052854;28;20108;-44
2023/06/22 09:13:18;;;;;;;15.68;12.27;;;;;;;22.51;75.88;101500.19;5053390;28;20477;-47
2023/06/22 09:15:43;;;;;;;15.90;12.18;;;;;;;22.56;76.26;101501.00;5053070;28;20519;-46
2023/06/22 09:18:11;;;;;;;17.33;12.07;;;;;;;22.65;78.22;101502.69;5052825;28;20116;-43
2023/06/22 09:20:36;;;;;;;18.08;13.25;;;;;;;22.63;76.33;101497.44;5052791;28;20060;-43
2023/06/22 09:23:01;;;;;;;15.27;12.27;;;;;;;22.66;76.34;101492.16;5053327;28;20480;-44
2023/06/22 09:25:26;;;;;;;18.83;13.48;;;;;;;22.68;75.65;101487.75;5052150;28;20087;-43
2023/06/22 09:27:52;;;;;;;15.88;13.27;;;;;;;22.63;74.29;101497.44;5053099;28;20025;-44
2023/06/22 09:30:17;;;;;;;15.02;12.60;;;;;;;22.64;75.65;101487.81;5053065;28;20082;-45
2023/06/22 09:32:43;;;;;;;15.55;12.00;;;;;;;22.59;74.58;101498.34;5052026;28;20025;-43
2023/06/22 09:35:09;;;;;;;15.30;12.82;;;;;;;22.61;74.37;101493.09;5053163;28;20021;-42
2023/06/22 09:37:35;;;;;;;15.43;13.10;;;;;;;22.59;76.20;101489.59;5052792;28;20024;-42
2023/06/22 09:40:01;;;;;;;18.13;13.63;;;;;;;22.56;75.75;101489.66;5052177;28;20046;-46
2023/06/22 09:42:26;;;;;;;15.73;12.88;;;;;;;22.56;75.38;101490.50;5052858;28;20097;-42
2023/06/22 09:44:51;;;;;;;17.42;14.98;;;;;;;22.49;74.20;101499.31;5053133;28;20029;-47
2023/06/22 09:47:17;;;;;;;19.42;14.65;;;;;;;22.48;75.45;101501.09;5052205;28;20028;-42
2023/06/22 09:49:42;;;;;;;18.10;13.43;;;;;;;22.46;75.52;101494.09;5052574;28;20048;-48
2023/06/22 09:52:07;;;;;;;16.63;14.15;;;;;;;22.42;75.53;101489.78;5052299;28;20094;-42
2023/06/22 09:54:33;;;;;;;17.25;14.30;;;;;;;22.38;76.71;101483.69;5052214;28;20068;-44
2023/06/22 09:56:58;;;;;;;21.25;15.18;;;;;;;22.31;76.83;101480.22;5052976;28;20063;-43
2023/06/22 09:59:23;;;;;;;21.75;15.88;;;;;;;22.24;76.37;101483.75;5052076;28;20025;-44
2023/06/22 10:01:49;;;;;;;22.80;15.48;;;;;;;22.18;76.89;101478.56;5052452;28;20426;-45
2023/06/22 10:04:14;;;;;;;18.67;16.23;;;;;;;22.11;76.74;101472.50;5052803;28;20017;-41
2023/06/22 10:06:40;;;;;;;17.75;15.02;;;;;;;22.07;76.75;101472.56;5052031;28;20465;-48
2023/06/22 10:09:07;;;;;;;19.70;15.82;;;;;;;22.03;77.61;101472.56;5052364;28;20022;-48
2023/06/22 10:11:34;;;;;;;21.25;15.55;;;;;;;22.02;78.72;101473.44;5052469;28;20033;-47
2023/06/22 10:14:00;;;;;;;20.45;15.73;;;;;;;22.03;77.70;101469.06;5052126;28;20461;-43
2023/06/22 10:16:30;;;;;;;21.70;16.58;;;;;;;22.01;78.87;101476.97;5052141;28;20108;-43
2023/06/22 10:18:56;;;;;;;20.55;16.70;;;;;;;22.01;79.61;101476.06;5052689;28;20021;-42
2023/06/22 10:21:21;;;;;;;21.38;17.38;;;;;;;22.02;79.01;101473.44;5051666;28;20047;-43
2023/06/22 10:23:46;;;;;;;21.02;16.98;;;;;;;22.02;78.73;101473.44;5052123;28;20033;-45
2023/06/22 10:26:12;;;;;;;22.23;16.90;;;;;;;22.06;78.68;101473.44;5052424;28;20021;-44
2023/06/22 10:28:37;;;;;;;19.98;16.23;;;;;;;22.06;80.84;101478.69;5051573;28;20091;-46
2023/06/22 10:31:02;;;;;;;21.40;17.08;;;;;;;22.08;79.18;101476.91;5052556;28;20072;-46
2023/06/22 10:33:28;;;;;;;22.30;17.08;;;;;;;22.11;80.19;101469.00;5055558;28;20115;-46
2023/06/22 10:35:53;;;;;;;22.20;17.20;;;;;;;22.17;79.78;101471.59;5055750;28;20021;-46
2023/06/22 10:38:18;;;;;;;24.75;16.92;;;;;;;22.24;80.18;101468.00;5056373;28;20021;-46
2023/06/22 10:40:43;;;;;;;22.13;16.85;;;;;;;22.24;80.24;101473.25;5056188;28;20029;-44
2023/06/22 10:43:09;;;;;;;21.42;17.95;;;;;;;22.28;78.86;101469.72;5055532;28;20031;-43
2023/06/22 10:45:34;;;;;;;24.65;18.63;;;;;;;22.30;79.97;101483.72;5056197;28;20539;-43
2023/06/22 10:47:59;;;;;;;20.90;17.02;;;;;;;22.34;81.14;101485.41;5056306;28;20047;-46
2023/06/22 10:50:25;;;;;;;23.35;18.60;;;;;;;22.34;81.47;101498.56;5055213;28;20025;-42
2023/06/22 10:52:50;;;;;;;20.60;17.92;;;;;;;22.28;80.73;101497.75;5056052;28;20438;-45
2023/06/22 10:55:16;;;;;;;20.55;17.20;;;;;;;22.20;82.77;101506.53;5055738;28;20037;-42
2023/06/22 10:57:46;;;;;;;20.55;17.98;;;;;;;22.06;83.62;101500.53;5055526;28;20029;-42
2023/06/22 11:00:13;;;;;;;22.02;17.67;;;;;;;21.91;86.63;101512.03;5056083;28;20029;-42
2023/06/22 11:02:38;;;;;;;27.07;19.13;;;;;;;21.75;83.12;101510.38;5055121;28;20039;-45